Accueil
METAR-TAF:

METAR-TAF

Aéroports :

Phetchabun, Thaïlande

latitude: 16-40-33N, longitude: 101-11-42E, altitude: 137 m

Observation

Le bulletin a été fait il y a 1 heure et 18 minutes, à 00:00 UTC
Vent 6 kt de nord
Température 22°C
Humidité 60%
Pression 1020 hPa
Visibilité: 8000 m

METAR: VTPB 220000Z 36006KT 8000 NSC 22/14 Q1020 NOSIG

Heure: 08:18 (01:18 UTC)

Prévision

Le bulletin a été fait il y a 2 heures et 18 minutes, à 23:00 UTC
Prévision valable du 22 à 00 UTC au 22 à 24 UTC
Vent 5 kt de nord
Visibilité: 8000 m

TAF: VTPB 212300Z 2200/2224 01005KT 8000 NSC

Observations et prévisions météorologiques de plus de 4000 aéroports (messages METAR et TAF).

Les stations disponibles sont représentées par des disques jaunes et rouges sur la carte.

Passer la souris dessus pour voir le nom de la station.

Cliquer dessus pour voir les observations et prévisions météorologiques.

Pour changer de carte: cliquez sur les boutons verts avec une croix noire pour zoomer, sur le bouton vert avec un tiret pour effectuer un zoom arrière, ou sur les flèches vertes pour les cartes adjacentes.


METAR-TAF: